• Join FlightAware (Why Join?)
  • Login
  • US Flag 
04:24PM EST


 

Airport Tracker/Info


-or-


 

Live Flight TrackerFlight Track Log ✈ N988QC ✈ 14-May-2013 ✈ TXKF / BDA - KBED

Flight Track Log - Related Links

Times and Time Zones

All times are in EDT time to prevent confusion due to time zone crossing. See the N988QC flight status page for this flight to view local times or setup timezone preferences in your user account.

Time Position Orientation Groundspeed Altitude Reporting Facility
EDT Latitude Longitude Course Direction KTS MPH feet Rate Location/Type
09:34PM 32.3667 -64.6833 343° North 201 231 13,000  Level New York Oceanic (ODAPS)
09:35PM 33.1666 -65.1363 335° Northwest  Level Estimated
09:36PM 33.2656 -65.1934 334° Northwest  Level Estimated
09:37PM 33.3646 -65.2506 334° Northwest  Level Estimated
09:38PM 33.4635 -65.3079 334° Northwest  Level Estimated
09:39PM 33.5624 -65.3654 334° Northwest  Level Estimated
09:39PM 32.3667 -64.6833 343° North 386 444 25,000  Level New York Oceanic (ODAPS)
09:40PM 32.8057 -64.8409 344° North 201 231 13,000 -11,820 Descending FlightAware Transoceanic
09:41PM 32.9280 -64.8819 344° North 201 231 13,000  Level FlightAware Transoceanic
09:42PM 33.0504 -64.9230 344° North 201 231 13,000  Level FlightAware Transoceanic
09:43PM 33.1727 -64.9642 344° North 201 231 13,000  Level FlightAware Transoceanic
09:44PM 33.2950 -65.0055 344° North 201 231 13,000 15,000 Level FlightAware Transoceanic
09:44PM 32.3667 -64.6833 343° North 386 444 31,000  Climbing New York Oceanic (ODAPS)
09:45PM 33.4173 -65.0470 344° North 201 231 13,000 -3,360 Descending FlightAware Transoceanic
09:46PM 33.7108 -65.1470 344° North 386 444 25,000 6,000 Climbing FlightAware Transoceanic
09:47PM 33.8134 -65.1821 344° North 386 444 25,000  Level FlightAware Transoceanic
09:48PM 33.9161 -65.2173 344° North 386 444 25,000 6,180 Level FlightAware Transoceanic
09:48PM 32.3667 -64.6833 343° North 386 444 36,000  Climbing New York Oceanic (ODAPS)
09:49PM 34.0188 -65.2527 344° North 386 444 25,000 -4,080 Descending FlightAware Transoceanic
09:50PM 34.1214 -65.2881 344° North 386 444 31,000 3,000 Climbing FlightAware Transoceanic
09:51PM 34.2241 -65.3236 344° North 386 444 31,000  Level FlightAware Transoceanic
09:52PM 34.3267 -65.3592 344° North 386 444 31,000  Level FlightAware Transoceanic
09:53PM 34.4294 -65.3948 344° North 386 444 31,000  Level FlightAware Transoceanic
09:54PM 34.5320 -65.4306 344° North 386 444 31,000 2,460 Level FlightAware Transoceanic
09:55PM 34.6346 -65.4664 344° North 386 444 36,000 2,460 Climbing FlightAware Transoceanic
09:56PM 34.7372 -65.5023 344° North 386 444 36,000  Level FlightAware Transoceanic
09:57PM 34.8398 -65.5384 344° North 386 444 36,000  Level FlightAware Transoceanic
09:58PM 34.9423 -65.5745 344° North 386 444 36,000  Level FlightAware Transoceanic
09:58PM 35.2500 -65.6833 338° Northwest 441 507 36,000  Level New York Oceanic (ODAPS)
09:59PM 35.0449 -65.6107 344° North 386 444 36,000  Level FlightAware Transoceanic
10:00PM 35.1475 -65.6469 344° North 386 444 36,000  Level FlightAware Transoceanic
10:01PM 32.9202 -64.8679 344° North  Level FlightAware Approximate
10:02PM 33.0261 -64.9031 344° North  Level FlightAware Approximate
10:03PM 33.1315 -64.9397 340° North  Level FlightAware Approximate
10:04PM 35.8196 -65.9660 338° Northwest 441 507 36,000  Level FlightAware Transoceanic
10:05PM 35.9335 -66.0230 338° Northwest 441 507 36,000  Level FlightAware Transoceanic
10:06PM 36.0473 -66.0802 338° Northwest 441 507 36,000  Level FlightAware Transoceanic
10:07PM 36.1611 -66.1376 338° Northwest 441 507 36,000  Level FlightAware Transoceanic
10:08PM 36.2748 -66.1951 338° Northwest 441 507 36,000  Level FlightAware Transoceanic
10:09PM 36.3886 -66.2527 338° Northwest 441 507 36,000  Level FlightAware Transoceanic
10:10PM 36.5023 -66.3106 338° Northwest 441 507 36,000  Level FlightAware Transoceanic
10:11PM 36.6160 -66.3686 338° Northwest 441 507 36,000  Level FlightAware Transoceanic
10:12PM 36.7296 -66.4268 338° Northwest 441 507 36,000  Level FlightAware Transoceanic
10:13PM 36.8432 -66.4852 338° Northwest 441 507 36,000  Level FlightAware Transoceanic
10:14PM 36.9568 -66.5437 338° Northwest 441 507 36,000  Level FlightAware Transoceanic
10:15PM 37.0704 -66.6024 338° Northwest 441 507 36,000  Level FlightAware Transoceanic
10:16PM 37.1839 -66.6613 338° Northwest 441 507 36,000  Level FlightAware Transoceanic
10:17PM 37.2974 -66.7204 337° Northwest 441 507 36,000  Level FlightAware Transoceanic
10:18PM 37.4109 -66.7796 337° Northwest 441 507 36,000  Level FlightAware Transoceanic
10:19PM 37.5243 -66.8391 337° Northwest 441 507 36,000  Level FlightAware Transoceanic
10:20PM 37.6378 -66.8987 337° Northwest 441 507 36,000  Level FlightAware Transoceanic
10:21PM 37.7512 -66.9585 337° Northwest 441 507 36,000  Level FlightAware Transoceanic
10:22PM 37.8645 -67.0184 337° Northwest 441 507 36,000  Level FlightAware Transoceanic
10:23PM 37.9778 -67.0786 337° Northwest 441 507 36,000  Level FlightAware Transoceanic
10:24PM 38.0911 -67.1389 337° Northwest 441 507 36,000  Level FlightAware Transoceanic
10:25PM 38.2044 -67.1995 337° Northwest 441 507 36,000  Level FlightAware Transoceanic
10:26PM 38.3176 -67.2602 337° Northwest 441 507 36,000  Level FlightAware Transoceanic
10:27PM 38.4308 -67.3211 337° Northwest 441 507 36,000  Level FlightAware Transoceanic
10:28PM 38.5440 -67.3822 337° Northwest 441 507 36,000  Level FlightAware Transoceanic
10:29PM 38.6572 -67.4435 337° Northwest 441 507 36,000  Level FlightAware Transoceanic
10:30PM 38.7703 -67.5050 337° Northwest 441 507 36,000  Level FlightAware Transoceanic
10:30PM 38.7050 -67.4867 336° Northwest 449 517 36,000  Level New York Center
10:31PM 38.8833 -67.5667 337° Northwest 441 507 36,000  Level FlightAware Transoceanic
10:31PM 38.8089 -67.5486 335° Northwest 436 502 36,000  Level New York Center
10:32PM 38.9952 -67.6291 337° Northwest 441 507 36,000  Level FlightAware Transoceanic
10:32PM 38.9147 -67.6081 336° Northwest 418 481 36,000  Level New York Center
10:33PM 39.1069 -67.6917 336° Northwest 441 507 36,000  Level FlightAware Transoceanic
10:33PM 39.0047 -67.7003 321° Northwest 418 481 36,000  Level New York Center
10:34PM 39.2187 -67.7545 336° Northwest 441 507 36,000  Level FlightAware Transoceanic
10:34PM 39.0986 -67.7847 325° Northwest 412 474 36,000  Level New York Center
10:35PM 39.1883 -67.8722 323° Northwest 412 474 36,000  Level New York Center
10:36PM 39.2781 -67.9597 323° Northwest 412 474 36,000  Level New York Center
10:37PM 39.3697 -68.0478 323° Northwest 406 467 36,000  Level New York Center
10:38PM 39.4553 -68.1439 319° Northwest 406 467 36,000  Level New York Center
10:39PM 39.5486 -68.2267 326° Northwest 406 467 36,000  Level New York Center
10:40PM 39.6381 -68.3153 323° Northwest 401 461 36,000  Level New York Center
10:41PM 39.7275 -68.4094 321° Northwest 401 461 36,000  Level New York Center
10:42PM 39.8167 -68.4983 323° Northwest 401 461 36,000  Level New York Center
10:43PM 39.9078 -68.5794 326° Northwest 406 467 36,000  Level New York Center
10:44PM 39.9950 -68.6742 320° Northwest 406 467 36,000  Level New York Center
10:45PM 40.0839 -68.7639 322° Northwest 401 461 36,000  Level New York Center
10:46PM 40.1728 -68.8539 322° Northwest 401 461 36,000  Level New York Center
10:47PM 40.2619 -68.9439 322° Northwest 401 461 36,000  Level New York Center
10:48PM 40.4061 -69.0933 322° Northwest 409 471 36,000  Level Boston Center
10:49PM 40.4942 -69.1789 324° Northwest 404 465 36,000  Level Boston Center
10:50PM 40.5800 -69.2703 321° Northwest 404 465 36,000  Level Boston Center
10:51PM 40.6681 -69.3589 323° Northwest 404 465 36,000  Level Boston Center
10:52PM 40.7539 -69.4536 320° Northwest 404 465 36,000  Level Boston Center
10:53PM 40.8417 -69.5428 322° Northwest 404 465 36,000  Level Boston Center
10:54PM 40.9275 -69.6325 322° Northwest 404 465 36,000 -300 Level Boston Center
10:55PM 41.0131 -69.7222 322° Northwest 404 465 35,500 -1,380 Descending Boston Center
10:56PM 41.1028 -69.8150 322° Northwest 404 465 33,300 -2,340 Descending Boston Center
10:57PM 41.1925 -69.9106 321° Northwest 404 465 30,900 -2,400 Descending Boston Center
10:58PM 41.2756 -69.9928 323° Northwest 394 453 28,500 -2,700 Descending Boston Center
10:59PM 41.3608 -70.0836 321° Northwest 389 448 25,600 -2,640 Descending Boston Center
11:00PM 41.4481 -70.1747 322° Northwest 389 448 23,300 -2,340 Descending Boston Center
11:01PM 41.5250 -70.2606 320° Northwest 380 437 21,000 -2,340 Descending Boston Center
11:02PM 41.6100 -70.3522 321° Northwest 385 443 18,700 -2,340 Descending Boston Center
11:03PM 41.6867 -70.4358 321° Northwest 380 437 16,400 -2,400 Descending Boston Center
11:04PM 41.7589 -70.5142 321° Northwest 358 412 14,000 -2,580 Descending Boston Center
11:05PM 41.8000 -70.5500 327° Northwest 326 375 12,700 -1,800 Descending KA90
11:06PM 41.8667 -70.6333 317° Northwest 314 361 11,300 -1,080 Descending KA90
11:06PM 41.8944 -70.6581 326° Northwest 323 372 11,100 -240 Descending Boston Center
11:07PM 41.9625 -70.7342 320° Northwest 317 365 11,000 -60 Descending Boston Center
11:08PM 42.0344 -70.8106 322° Northwest 307 353 11,000  Level Boston Center
11:09PM 42.0958 -70.8789 320° Northwest 294 338 11,000 -540 Level Boston Center
11:10PM 42.1333 -70.9167 323° Northwest 297 342 10,300 -2,160 Descending KA90
11:11PM 42.1833 -70.9667 323° Northwest 266 306 7,900 -2,520 Descending KA90
11:12PM 42.2500 -71.0333 323° Northwest 262 302 5,100 -1,980 Descending KA90
11:13PM 42.2833 -71.0833 312° West 244 281 4,200 -1,200 Descending KA90
11:14PM 42.3178 -71.1261 317° Northwest 229 264 3,200 -960 Descending Boston Center
11:15PM 42.3683 -71.1672 329° Northwest 198 228 2,500 -540 Descending Boston Center
11:16PM 42.4017 -71.1833 340° North 161 185 2,200 -300 Descending Boston Center
11:16PM 42.4333 -71.2000 339° North 145 167 2,100 -600 Descending KA90
11:17PM 42.4500 -71.2167 324° Northwest 121 139 1,400 -840 Descending KA90
11:18PM 42.4667 -71.2500 304° West 123 142 500 -840 Descending KA90